• Join FlightAware (Why Join?)
  • Login
  • US Flag 
07:43PM EDT


 

Airport Tracker/Info


-or-


 

Live Flight TrackerFlight Track Log ✈ ASQ6041 ✈ 02-Jul-2013 ✈ KALB - KIAD

Flight Track Log - Related Links

Times and Time Zones

All times are in EDT time to prevent confusion due to time zone crossing. See the ASQ6041 flight status page for this flight to view local times or setup timezone preferences in your user account.

Time Position Orientation Groundspeed Altitude Reporting Facility
EDT Latitude Longitude Course Direction KTS MPH feet Rate Location/Type
09:59AM 42.7653 -73.8061 198° South 163 188 1,000  Level Boston Center
09:59AM 42.7922 -73.8094 355° North 184 212 1,900 1,920 Climbing Boston Center
10:00AM 42.8375 -73.8672 317° Northwest 243 280 4,200 1,920 Climbing Boston Center
10:01AM 42.8017 -73.9003 214° Southwest 225 259 5,700 1,920 Climbing Boston Center
10:02AM 42.7489 -73.9556 218° Southwest 225 259 7,800 2,100 Climbing Boston Center
10:03AM 42.3394 -73.9712 198° South  Level FlightAware Approximate
10:03AM 42.7081 -74.0364 236° Southwest 249 287 9,900  Level Boston Center
10:04AM 42.2581 -74.0061 198° South  Level FlightAware Approximate
10:04AM 42.6611 -74.1200 233° Southwest 278 320 11,100  Level Boston Center
10:05AM 42.6031 -74.2283 234° Southwest 314 361 12,600 1,560 Climbing Boston Center
10:06AM 42.5378 -74.2631 201° Southwest 299 344 14,300 1,800 Climbing Boston Center
10:07AM 42.4875 -74.1519 122° Southeast 255 293 16,300 1,620 Climbing Boston Center
10:08AM 42.4558 -74.0414 111° Southeast 310 357 17,600 1,080 Climbing Boston Center
10:09AM 42.3711 -73.9914 156° South 297 342 18,500 900 Climbing Boston Center
10:10AM 42.2914 -74.0175 194° South 283 326 19,400 900 Climbing Boston Center
10:11AM 42.1953 -74.0375 189° South 317 365 20,400 960 Climbing Boston Center
10:12AM 42.0972 -74.0433 183° South 340 391 21,400 960 Climbing Boston Center
10:13AM 41.9992 -74.0547 185° South 354 407 22,400 1,020 Climbing Boston Center
10:15AM 41.8217 -74.1361 199° South 342 394 24,500 1,020 Climbing New York Center
10:16AM 41.7328 -74.1817 201° Southwest 342 394 25,500 960 Climbing New York Center
10:17AM 41.6464 -74.2244 200° South 342 394 26,500 900 Climbing New York Center
10:18AM 41.5722 -74.2622 201° Southwest 342 394 27,400 900 Climbing New York Center
10:19AM 41.4814 -74.3100 202° Southwest 334 384 28,400 960 Climbing New York Center
10:20AM 41.3947 -74.3525 200° South 339 390 29,400 780 Climbing New York Center
10:21AM 41.3033 -74.4083 205° Southwest 344 396 30,000 300 Climbing New York Center
10:22AM 41.2378 -74.5069 229° Southwest 351 404 30,000  Level New York Center
10:23AM 41.1678 -74.6131 229° Southwest 362 417 30,000 -60 Level New York Center
10:24AM 41.0933 -74.7272 229° Southwest 391 450 29,900 -660 Descending New York Center
10:25AM 41.0186 -74.8411 229° Southwest 407 468 28,700 -960 Descending New York Center
10:26AM 40.9439 -74.9522 228° Southwest 407 468 28,000 -720 Descending New York Center
10:27AM 40.8731 -75.0631 230° Southwest 407 468 27,300 -1,080 Descending New York Center
10:28AM 40.7961 -75.1733 227° Southwest 407 468 25,900 -1,380 Descending New York Center
10:29AM 40.7253 -75.2892 231° Southwest 407 468 24,500 -1,500 Descending New York Center
10:30AM 40.6603 -75.4025 233° Southwest 407 468 23,000 -1,500 Descending New York Center
10:31AM 40.5911 -75.5153 231° Southwest 402 463 21,600 -1,440 Descending New York Center
10:32AM 40.5244 -75.6228 231° Southwest 402 463 20,100 -840 Descending New York Center
10:33AM 40.4614 -75.7331 233° Southwest 397 457 20,000 -60 Descending New York Center
10:34AM 40.3964 -75.8400 231° Southwest 397 457 20,000  Level New York Center
10:35AM 40.3203 -75.9622 231° Southwest 402 463 20,000  Level New York Center
10:36AM 40.2506 -76.0742 231° Southwest 402 463 20,000  Level New York Center
10:37AM 40.1872 -76.1861 234° Southwest 402 463 20,000 -480 Level New York Center
10:38AM 40.1261 -76.2872 232° Southwest 402 463 19,100 -1,320 Descending New York Center
10:39AM 40.0664 -76.4047 236° Southwest 371 427 17,500 -1,560 Descending New York Center
10:40AM 40.0153 -76.5169 239° Southwest 364 419 16,000 -960 Descending New York Center
10:42AM 39.9333 -76.6833 237° Southwest 363 418 15,100 -420 Descending Potomac TRACON
10:43AM 39.8833 -76.8000 241° Southwest 360 414 15,100 -420 Level Potomac TRACON
10:44AM 39.8333 -76.9000 237° Southwest 355 409 14,300 -1,020 Descending Potomac TRACON
10:45AM 39.7833 -77.0167 241° Southwest 352 405 13,000 -1,380 Descending Potomac TRACON
10:46AM 39.7333 -77.1167 237° Southwest 352 405 11,700 -1,380 Descending Potomac TRACON
10:47AM 39.6833 -77.2167 237° Southwest 334 384 10,400 -1,140 Descending Potomac TRACON
10:48AM 39.6333 -77.3167 237° Southwest 284 327 9,300 -960 Descending Potomac TRACON
10:49AM 39.5833 -77.3833 226° Southwest 263 303 8,400 -960 Descending Potomac TRACON
10:50AM 39.5333 -77.4333 218° Southwest 256 295 7,400 -660 Descending Potomac TRACON
10:51AM 39.4667 -77.4500 191° South 255 293 7,100 -600 Descending Potomac TRACON
10:52AM 39.3833 -77.4500 180° South 252 290 6,200 -960 Descending Potomac TRACON
10:53AM 39.3167 -77.4500 180° South 239 275 5,200 -1,020 Descending Potomac TRACON
10:54AM 39.2667 -77.4500 180° South 212 244 4,200 -1,020 Descending Potomac TRACON
10:55AM 39.2000 -77.4500 180° South 210 242 3,300 -600 Descending Potomac TRACON
10:56AM 39.1500 -77.4500 180° South 163 188 3,000 -240 Descending Potomac TRACON
10:57AM 39.1000 -77.4500 180° South 169 194 2,800 -540 Descending Potomac TRACON
10:59AM 39.0167 -77.4667 189° South 130 150 1,400 -720 Descending Potomac TRACON
11:01AM 38.9474 -77.4599 180° South  Level Estimated
11:08AM 38.9474 -77.4599 349° North  Level Estimated
11:09AM 38.9474 -77.4599 349° North  Level Estimated
11:10AM 38.9474 -77.4599 349° North  Level Estimated